Startpagina
METAR-TAF:

METAR-TAF

Vliegvelden :

Matam, Senegal

breedte: 15-39N, lengte: 013-15W, hoogte: 15 m

Actueel weer

Dit bericht is 50 minuten geleden gemaakt, om 19:00 UTC
Weinig wind
Temperatuur 32°C
Vochtigheid 67%
Druk 1010 hPa
Zicht 10 km of meer
Verspreide wolken op 2000 ft

METAR: GOSM 131900Z 00000KT 9999 SCT020 32/25 Q1010

Tijdstip: 19:50 (19:50 UTC)


TAF: ontbreekt

Waarnemingen en weersverwachtingen van meer dan 4000 vliegvelden (METAR en TAF).

De beschikbare stations zijn de gele en rode punten op de kaart.

Ga met uw muis naar het station om de naam te zien.

Klik dan om waarnemingen en weersverwachtingen te zien.

kaart wijzigen: klik op de groene knoppen met een zwart kruis om in te zoomen, op de groene knop met een streepje om uit te zoomen of op de groene pijlen voor aangrenzende kaarten.


METAR-TAF: